sensor_id;sensor_type;location;lat;lon;timestamp;P1;durP1;ratioP1;P2;durP2;ratioP2
66886;SDS011;67239;51.680;5.976;2023-08-08T00:01:36;5.43;;;2.78;;
66886;SDS011;67239;51.680;5.976;2023-08-08T00:04:03;5.68;;;2.80;;
66886;SDS011;67239;51.680;5.976;2023-08-08T00:06:30;3.58;;;2.33;;
66886;SDS011;67239;51.680;5.976;2023-08-08T00:08:57;4.15;;;2.40;;
66886;SDS011;67239;51.680;5.976;2023-08-08T00:11:24;6.32;;;2.80;;
66886;SDS011;67239;51.680;5.976;2023-08-08T00:13:51;5.45;;;2.40;;
66886;SDS011;67239;51.680;5.976;2023-08-08T00:16:18;4.40;;;2.33;;
66886;SDS011;67239;51.680;5.976;2023-08-08T00:18:45;4.13;;;2.58;;
66886;SDS011;67239;51.680;5.976;2023-08-08T00:21:12;5.05;;;2.63;;
66886;SDS011;67239;51.680;5.976;2023-08-08T00:23:40;5.45;;;2.80;;
66886;SDS011;67239;51.680;5.976;2023-08-08T00:26:07;5.03;;;2.58;;
66886;SDS011;67239;51.680;5.976;2023-08-08T00:28:34;10.02;;;2.67;;
66886;SDS011;67239;51.680;5.976;2023-08-08T00:31:01;5.57;;;2.60;;
66886;SDS011;67239;51.680;5.976;2023-08-08T00:33:28;5.40;;;2.50;;
66886;SDS011;67239;51.680;5.976;2023-08-08T00:35:56;5.35;;;2.42;;
66886;SDS011;67239;51.680;5.976;2023-08-08T00:38:23;7.40;;;2.72;;
66886;SDS011;67239;51.680;5.976;2023-08-08T00:40:50;4.22;;;2.63;;
66886;SDS011;67239;51.680;5.976;2023-08-08T00:43:17;6.30;;;2.90;;
66886;SDS011;67239;51.680;5.976;2023-08-08T00:45:44;5.63;;;2.70;;
66886;SDS011;67239;51.680;5.976;2023-08-08T00:48:12;6.07;;;3.08;;
66886;SDS011;67239;51.680;5.976;2023-08-08T00:50:41;4.20;;;2.55;;
66886;SDS011;67239;51.680;5.976;2023-08-08T00:53:12;5.40;;;2.78;;
66886;SDS011;67239;51.680;5.976;2023-08-08T00:55:39;6.70;;;3.00;;
66886;SDS011;67239;51.680;5.976;2023-08-08T00:58:07;10.27;;;2.95;;
66886;SDS011;67239;51.680;5.976;2023-08-08T01:00:34;6.40;;;3.10;;
66886;SDS011;67239;51.680;5.976;2023-08-08T01:03:01;8.35;;;3.15;;
66886;SDS011;67239;51.680;5.976;2023-08-08T01:05:36;6.47;;;3.10;;
66886;SDS011;67239;51.680;5.976;2023-08-08T01:08:11;6.38;;;2.58;;
66886;SDS011;67239;51.680;5.976;2023-08-08T01:10:49;5.43;;;2.70;;
66886;SDS011;67239;51.680;5.976;2023-08-08T01:13:17;7.97;;;2.85;;
66886;SDS011;67239;51.680;5.976;2023-08-08T01:15:49;10.45;;;3.03;;
66886;SDS011;67239;51.680;5.976;2023-08-08T01:18:17;5.97;;;2.97;;
66886;SDS011;67239;51.680;5.976;2023-08-08T01:20:46;6.20;;;3.13;;
66886;SDS011;67239;51.680;5.976;2023-08-08T01:23:25;6.15;;;2.78;;
66886;SDS011;67239;51.680;5.976;2023-08-08T01:26:04;6.57;;;2.80;;
66886;SDS011;67239;51.680;5.976;2023-08-08T01:28:31;6.95;;;2.50;;
66886;SDS011;67239;51.680;5.976;2023-08-08T01:31:00;7.55;;;2.60;;
66886;SDS011;67239;51.680;5.976;2023-08-08T01:33:27;7.53;;;2.88;;
66886;SDS011;67239;51.680;5.976;2023-08-08T01:36:06;7.68;;;2.80;;
66886;SDS011;67239;51.680;5.976;2023-08-08T01:38:43;6.32;;;2.78;;
66886;SDS011;67239;51.680;5.976;2023-08-08T01:41:15;5.93;;;2.92;;
66886;SDS011;67239;51.680;5.976;2023-08-08T01:43:43;6.93;;;2.92;;
66886;SDS011;67239;51.680;5.976;2023-08-08T01:46:11;6.60;;;2.95;;
66886;SDS011;67239;51.680;5.976;2023-08-08T01:48:39;6.90;;;2.90;;
66886;SDS011;67239;51.680;5.976;2023-08-08T01:51:06;6.38;;;3.22;;
66886;SDS011;67239;51.680;5.976;2023-08-08T01:53:34;5.18;;;2.90;;
66886;SDS011;67239;51.680;5.976;2023-08-08T01:56:01;8.25;;;2.85;;
66886;SDS011;67239;51.680;5.976;2023-08-08T01:58:29;5.53;;;2.90;;
66886;SDS011;67239;51.680;5.976;2023-08-08T02:00:56;5.57;;;3.10;;
66886;SDS011;67239;51.680;5.976;2023-08-08T02:03:23;6.35;;;2.83;;
66886;SDS011;67239;51.680;5.976;2023-08-08T02:05:51;7.80;;;2.97;;
66886;SDS011;67239;51.680;5.976;2023-08-08T02:08:18;5.85;;;2.90;;
66886;SDS011;67239;51.680;5.976;2023-08-08T02:10:45;6.82;;;3.10;;
66886;SDS011;67239;51.680;5.976;2023-08-08T02:13:12;5.43;;;3.00;;
66886;SDS011;67239;51.680;5.976;2023-08-08T02:15:39;5.85;;;3.08;;
66886;SDS011;67239;51.680;5.976;2023-08-08T02:18:07;8.38;;;3.50;;
66886;SDS011;67239;51.680;5.976;2023-08-08T02:20:35;12.15;;;3.92;;
66886;SDS011;67239;51.680;5.976;2023-08-08T02:23:04;7.20;;;3.60;;
66886;SDS011;67239;51.680;5.976;2023-08-08T02:25:31;8.65;;;4.20;;
66886;SDS011;67239;51.680;5.976;2023-08-08T02:27:58;7.53;;;4.00;;
66886;SDS011;67239;51.680;5.976;2023-08-08T02:30:25;8.95;;;4.30;;
66886;SDS011;67239;51.680;5.976;2023-08-08T02:32:52;7.13;;;4.18;;
66886;SDS011;67239;51.680;5.976;2023-08-08T02:35:19;8.90;;;4.13;;
66886;SDS011;67239;51.680;5.976;2023-08-08T02:37:47;7.75;;;3.90;;
66886;SDS011;67239;51.680;5.976;2023-08-08T02:40:14;11.50;;;4.22;;
66886;SDS011;67239;51.680;5.976;2023-08-08T02:42:41;9.57;;;4.35;;
66886;SDS011;67239;51.680;5.976;2023-08-08T02:45:08;10.98;;;4.60;;
66886;SDS011;67239;51.680;5.976;2023-08-08T02:47:36;7.75;;;4.13;;
66886;SDS011;67239;51.680;5.976;2023-08-08T02:50:03;10.85;;;4.55;;
66886;SDS011;67239;51.680;5.976;2023-08-08T02:52:31;8.45;;;4.28;;
66886;SDS011;67239;51.680;5.976;2023-08-08T02:54:58;9.07;;;4.45;;
66886;SDS011;67239;51.680;5.976;2023-08-08T02:57:25;11.50;;;4.57;;
66886;SDS011;67239;51.680;5.976;2023-08-08T02:59:54;11.02;;;4.85;;
66886;SDS011;67239;51.680;5.976;2023-08-08T03:02:22;10.63;;;5.05;;
66886;SDS011;67239;51.680;5.976;2023-08-08T03:04:50;10.48;;;4.63;;
66886;SDS011;67239;51.680;5.976;2023-08-08T03:07:18;12.63;;;5.22;;
66886;SDS011;67239;51.680;5.976;2023-08-08T03:09:45;9.02;;;4.45;;
66886;SDS011;67239;51.680;5.976;2023-08-08T03:12:12;9.45;;;5.15;;
66886;SDS011;67239;51.680;5.976;2023-08-08T03:14:39;9.80;;;4.78;;
66886;SDS011;67239;51.680;5.976;2023-08-08T03:17:10;14.07;;;5.30;;
66886;SDS011;67239;51.680;5.976;2023-08-08T03:19:37;9.50;;;4.88;;
66886;SDS011;67239;51.680;5.976;2023-08-08T03:22:05;19.35;;;5.43;;
66886;SDS011;67239;51.680;5.976;2023-08-08T03:24:35;12.05;;;5.28;;
66886;SDS011;67239;51.680;5.976;2023-08-08T03:27:03;11.15;;;5.53;;
66886;SDS011;67239;51.680;5.976;2023-08-08T03:29:30;11.32;;;5.22;;
66886;SDS011;67239;51.680;5.976;2023-08-08T03:31:58;12.02;;;5.18;;
66886;SDS011;67239;51.680;5.976;2023-08-08T03:34:28;10.85;;;5.35;;
66886;SDS011;67239;51.680;5.976;2023-08-08T03:36:56;14.20;;;5.57;;
66886;SDS011;67239;51.680;5.976;2023-08-08T03:39:24;13.57;;;5.60;;
66886;SDS011;67239;51.680;5.976;2023-08-08T03:41:52;9.07;;;5.45;;
66886;SDS011;67239;51.680;5.976;2023-08-08T03:44:19;9.43;;;5.40;;
66886;SDS011;67239;51.680;5.976;2023-08-08T03:46:46;9.73;;;5.50;;
66886;SDS011;67239;51.680;5.976;2023-08-08T03:49:14;12.07;;;5.43;;
66886;SDS011;67239;51.680;5.976;2023-08-08T03:51:41;11.07;;;5.80;;
66886;SDS011;67239;51.680;5.976;2023-08-08T03:54:08;14.70;;;6.15;;
66886;SDS011;67239;51.680;5.976;2023-08-08T03:56:35;11.10;;;5.90;;
66886;SDS011;67239;51.680;5.976;2023-08-08T03:59:02;13.68;;;6.40;;
66886;SDS011;67239;51.680;5.976;2023-08-08T04:01:29;12.43;;;6.00;;
66886;SDS011;67239;51.680;5.976;2023-08-08T04:03:56;12.75;;;5.68;;
66886;SDS011;67239;51.680;5.976;2023-08-08T04:06:23;14.00;;;6.30;;
66886;SDS011;67239;51.680;5.976;2023-08-08T04:08:51;14.45;;;6.35;;
66886;SDS011;67239;51.680;5.976;2023-08-08T04:11:18;14.52;;;6.45;;
66886;SDS011;67239;51.680;5.976;2023-08-08T04:13:45;15.45;;;6.05;;
66886;SDS011;67239;51.680;5.976;2023-08-08T04:16:12;12.90;;;6.13;;
66886;SDS011;67239;51.680;5.976;2023-08-08T04:18:41;15.20;;;6.25;;
66886;SDS011;67239;51.680;5.976;2023-08-08T04:21:08;13.95;;;5.95;;
66886;SDS011;67239;51.680;5.976;2023-08-08T04:23:36;14.45;;;6.88;;
66886;SDS011;67239;51.680;5.976;2023-08-08T04:26:03;16.35;;;7.30;;
66886;SDS011;67239;51.680;5.976;2023-08-08T04:28:30;16.27;;;6.80;;
66886;SDS011;67239;51.680;5.976;2023-08-08T04:30:57;15.63;;;6.75;;
66886;SDS011;67239;51.680;5.976;2023-08-08T04:33:24;14.05;;;6.75;;
66886;SDS011;67239;51.680;5.976;2023-08-08T04:35:51;15.98;;;6.90;;
66886;SDS011;67239;51.680;5.976;2023-08-08T04:38:18;12.57;;;6.93;;
66886;SDS011;67239;51.680;5.976;2023-08-08T04:40:46;14.90;;;6.75;;
66886;SDS011;67239;51.680;5.976;2023-08-08T04:43:13;15.82;;;7.28;;
66886;SDS011;67239;51.680;5.976;2023-08-08T04:45:40;12.07;;;7.43;;
66886;SDS011;67239;51.680;5.976;2023-08-08T04:48:07;16.30;;;7.03;;
66886;SDS011;67239;51.680;5.976;2023-08-08T04:50:34;16.50;;;7.07;;
66886;SDS011;67239;51.680;5.976;2023-08-08T04:53:01;15.32;;;7.78;;
66886;SDS011;67239;51.680;5.976;2023-08-08T04:55:28;17.00;;;6.85;;
66886;SDS011;67239;51.680;5.976;2023-08-08T04:57:56;14.20;;;7.80;;
66886;SDS011;67239;51.680;5.976;2023-08-08T05:00:25;21.75;;;7.88;;
66886;SDS011;67239;51.680;5.976;2023-08-08T05:02:53;18.58;;;7.95;;
66886;SDS011;67239;51.680;5.976;2023-08-08T05:05:20;15.55;;;7.78;;
66886;SDS011;67239;51.680;5.976;2023-08-08T05:07:47;18.35;;;7.40;;
66886;SDS011;67239;51.680;5.976;2023-08-08T05:10:14;14.35;;;6.97;;
66886;SDS011;67239;51.680;5.976;2023-08-08T05:12:41;15.65;;;7.20;;
66886;SDS011;67239;51.680;5.976;2023-08-08T05:15:08;13.25;;;7.00;;
66886;SDS011;67239;51.680;5.976;2023-08-08T05:17:36;13.98;;;7.13;;
66886;SDS011;67239;51.680;5.976;2023-08-08T05:20:04;16.00;;;6.85;;
66886;SDS011;67239;51.680;5.976;2023-08-08T05:22:32;14.98;;;6.70;;
66886;SDS011;67239;51.680;5.976;2023-08-08T05:24:59;17.10;;;6.38;;
66886;SDS011;67239;51.680;5.976;2023-08-08T05:27:26;13.93;;;5.93;;
66886;SDS011;67239;51.680;5.976;2023-08-08T05:29:53;15.80;;;6.05;;
66886;SDS011;67239;51.680;5.976;2023-08-08T05:32:23;13.07;;;6.63;;
66886;SDS011;67239;51.680;5.976;2023-08-08T05:34:51;14.70;;;6.55;;
66886;SDS011;67239;51.680;5.976;2023-08-08T05:37:18;20.23;;;6.28;;
66886;SDS011;67239;51.680;5.976;2023-08-08T05:39:45;11.40;;;5.13;;
66886;SDS011;67239;51.680;5.976;2023-08-08T05:42:12;15.45;;;5.60;;
66886;SDS011;67239;51.680;5.976;2023-08-08T05:44:39;10.77;;;5.10;;
66886;SDS011;67239;51.680;5.976;2023-08-08T05:47:08;13.25;;;4.78;;
66886;SDS011;67239;51.680;5.976;2023-08-08T05:49:35;10.90;;;4.70;;
66886;SDS011;67239;51.680;5.976;2023-08-08T05:52:03;14.10;;;4.60;;
66886;SDS011;67239;51.680;5.976;2023-08-08T05:54:30;11.00;;;4.60;;
66886;SDS011;67239;51.680;5.976;2023-08-08T05:56:58;10.98;;;4.82;;
66886;SDS011;67239;51.680;5.976;2023-08-08T05:59:25;11.65;;;4.82;;
66886;SDS011;67239;51.680;5.976;2023-08-08T06:01:52;12.27;;;5.28;;
66886;SDS011;67239;51.680;5.976;2023-08-08T06:04:19;14.02;;;4.95;;
66886;SDS011;67239;51.680;5.976;2023-08-08T06:06:46;13.98;;;5.18;;
66886;SDS011;67239;51.680;5.976;2023-08-08T06:09:16;11.18;;;5.25;;
66886;SDS011;67239;51.680;5.976;2023-08-08T06:11:43;9.23;;;4.78;;
66886;SDS011;67239;51.680;5.976;2023-08-08T06:14:10;13.27;;;5.47;;
66886;SDS011;67239;51.680;5.976;2023-08-08T06:16:37;12.65;;;5.50;;
66886;SDS011;67239;51.680;5.976;2023-08-08T06:19:05;13.35;;;5.03;;
66886;SDS011;67239;51.680;5.976;2023-08-08T06:21:32;19.52;;;5.68;;
66886;SDS011;67239;51.680;5.976;2023-08-08T06:23:59;11.40;;;5.68;;
66886;SDS011;67239;51.680;5.976;2023-08-08T06:26:27;10.63;;;5.10;;
66886;SDS011;67239;51.680;5.976;2023-08-08T06:28:54;16.75;;;6.00;;
66886;SDS011;67239;51.680;5.976;2023-08-08T06:31:21;13.80;;;5.63;;
66886;SDS011;67239;51.680;5.976;2023-08-08T06:33:49;10.10;;;5.63;;
66886;SDS011;67239;51.680;5.976;2023-08-08T06:36:16;11.43;;;5.22;;
66886;SDS011;67239;51.680;5.976;2023-08-08T06:38:43;10.65;;;5.65;;
66886;SDS011;67239;51.680;5.976;2023-08-08T06:41:10;10.50;;;5.35;;
66886;SDS011;67239;51.680;5.976;2023-08-08T06:43:37;12.57;;;5.07;;
66886;SDS011;67239;51.680;5.976;2023-08-08T06:46:04;10.32;;;5.32;;
66886;SDS011;67239;51.680;5.976;2023-08-08T06:48:32;11.85;;;5.22;;
66886;SDS011;67239;51.680;5.976;2023-08-08T06:50:59;14.90;;;5.22;;
66886;SDS011;67239;51.680;5.976;2023-08-08T06:53:26;11.30;;;4.93;;
66886;SDS011;67239;51.680;5.976;2023-08-08T06:55:55;15.73;;;5.15;;
66886;SDS011;67239;51.680;5.976;2023-08-08T06:58:22;12.95;;;5.40;;
66886;SDS011;67239;51.680;5.976;2023-08-08T07:00:50;12.27;;;5.25;;
66886;SDS011;67239;51.680;5.976;2023-08-08T07:03:17;11.35;;;4.90;;
66886;SDS011;67239;51.680;5.976;2023-08-08T07:05:44;9.85;;;4.75;;
66886;SDS011;67239;51.680;5.976;2023-08-08T07:08:12;11.38;;;5.13;;
66886;SDS011;67239;51.680;5.976;2023-08-08T07:10:39;14.52;;;4.75;;
66886;SDS011;67239;51.680;5.976;2023-08-08T07:13:06;10.82;;;4.75;;
66886;SDS011;67239;51.680;5.976;2023-08-08T07:15:33;8.35;;;4.40;;
66886;SDS011;67239;51.680;5.976;2023-08-08T07:18:01;10.85;;;5.18;;
66886;SDS011;67239;51.680;5.976;2023-08-08T07:20:31;15.38;;;4.88;;
66886;SDS011;67239;51.680;5.976;2023-08-08T07:22:58;9.77;;;4.13;;
66886;SDS011;67239;51.680;5.976;2023-08-08T07:25:27;20.80;;;5.20;;
66886;SDS011;67239;51.680;5.976;2023-08-08T07:27:54;8.20;;;3.97;;
66886;SDS011;67239;51.680;5.976;2023-08-08T07:30:21;8.90;;;3.47;;
66886;SDS011;67239;51.680;5.976;2023-08-08T07:32:49;17.77;;;4.65;;
66886;SDS011;67239;51.680;5.976;2023-08-08T07:35:16;14.00;;;4.10;;
66886;SDS011;67239;51.680;5.976;2023-08-08T07:37:44;10.68;;;4.22;;
66886;SDS011;67239;51.680;5.976;2023-08-08T07:40:17;19.63;;;4.20;;
66886;SDS011;67239;51.680;5.976;2023-08-08T07:42:47;10.13;;;4.10;;
66886;SDS011;67239;51.680;5.976;2023-08-08T07:45:16;8.63;;;3.67;;
66886;SDS011;67239;51.680;5.976;2023-08-08T07:47:43;11.52;;;3.90;;
66886;SDS011;67239;51.680;5.976;2023-08-08T07:50:11;13.93;;;3.85;;
66886;SDS011;67239;51.680;5.976;2023-08-08T07:52:38;6.70;;;3.72;;
66886;SDS011;67239;51.680;5.976;2023-08-08T07:55:05;7.78;;;3.30;;
66886;SDS011;67239;51.680;5.976;2023-08-08T07:57:33;11.02;;;3.45;;
66886;SDS011;67239;51.680;5.976;2023-08-08T08:00:02;7.75;;;3.65;;
66886;SDS011;67239;51.680;5.976;2023-08-08T08:02:41;17.45;;;3.53;;
66886;SDS011;67239;51.680;5.976;2023-08-08T08:05:10;11.82;;;3.35;;
66886;SDS011;67239;51.680;5.976;2023-08-08T08:07:38;8.60;;;3.63;;
66886;SDS011;67239;51.680;5.976;2023-08-08T08:10:07;6.80;;;3.30;;
66886;SDS011;67239;51.680;5.976;2023-08-08T08:12:36;12.43;;;3.65;;
66886;SDS011;67239;51.680;5.976;2023-08-08T08:15:04;7.47;;;3.42;;
66886;SDS011;67239;51.680;5.976;2023-08-08T08:17:32;6.63;;;3.08;;
66886;SDS011;67239;51.680;5.976;2023-08-08T08:19:59;7.47;;;3.05;;
66886;SDS011;67239;51.680;5.976;2023-08-08T08:22:26;9.30;;;3.30;;
66886;SDS011;67239;51.680;5.976;2023-08-08T08:24:53;8.00;;;2.67;;
66886;SDS011;67239;51.680;5.976;2023-08-08T08:27:20;5.68;;;2.70;;
66886;SDS011;67239;51.680;5.976;2023-08-08T08:29:47;6.65;;;2.33;;
66886;SDS011;67239;51.680;5.976;2023-08-08T08:32:14;6.25;;;2.35;;
66886;SDS011;67239;51.680;5.976;2023-08-08T08:34:41;6.05;;;1.77;;
66886;SDS011;67239;51.680;5.976;2023-08-08T08:37:09;5.32;;;2.10;;
66886;SDS011;67239;51.680;5.976;2023-08-08T08:39:36;6.57;;;1.88;;
66886;SDS011;67239;51.680;5.976;2023-08-08T08:42:03;8.70;;;2.05;;
66886;SDS011;67239;51.680;5.976;2023-08-08T08:44:33;5.25;;;1.73;;
66886;SDS011;67239;51.680;5.976;2023-08-08T08:47:02;6.90;;;1.70;;
66886;SDS011;67239;51.680;5.976;2023-08-08T08:49:37;4.97;;;1.65;;
66886;SDS011;67239;51.680;5.976;2023-08-08T08:52:08;6.07;;;1.15;;
66886;SDS011;67239;51.680;5.976;2023-08-08T08:54:36;4.05;;;1.25;;
66886;SDS011;67239;51.680;5.976;2023-08-08T08:57:03;4.07;;;1.10;;
66886;SDS011;67239;51.680;5.976;2023-08-08T08:59:31;5.00;;;0.98;;
66886;SDS011;67239;51.680;5.976;2023-08-08T09:01:58;2.35;;;0.80;;
66886;SDS011;67239;51.680;5.976;2023-08-08T09:04:27;4.55;;;0.95;;
66886;SDS011;67239;51.680;5.976;2023-08-08T09:06:56;11.27;;;1.40;;
66886;SDS011;67239;51.680;5.976;2023-08-08T09:09:23;2.50;;;0.98;;
66886;SDS011;67239;51.680;5.976;2023-08-08T09:11:51;10.23;;;1.33;;
66886;SDS011;67239;51.680;5.976;2023-08-08T09:14:22;4.78;;;1.05;;
66886;SDS011;67239;51.680;5.976;2023-08-08T09:16:54;6.68;;;1.27;;
66886;SDS011;67239;51.680;5.976;2023-08-08T09:19:21;4.13;;;1.00;;
66886;SDS011;67239;51.680;5.976;2023-08-08T09:21:49;4.78;;;1.20;;
66886;SDS011;67239;51.680;5.976;2023-08-08T09:24:18;8.45;;;1.15;;
66886;SDS011;67239;51.680;5.976;2023-08-08T09:26:46;13.05;;;1.60;;
66886;SDS011;67239;51.680;5.976;2023-08-08T09:29:13;4.13;;;1.00;;
66886;SDS011;67239;51.680;5.976;2023-08-08T09:31:41;5.22;;;1.45;;
66886;SDS011;67239;51.680;5.976;2023-08-08T09:34:09;5.05;;;1.35;;
66886;SDS011;67239;51.680;5.976;2023-08-08T09:36:36;5.65;;;1.08;;
66886;SDS011;67239;51.680;5.976;2023-08-08T09:39:04;4.68;;;1.20;;
66886;SDS011;67239;51.680;5.976;2023-08-08T09:41:31;4.30;;;1.23;;
66886;SDS011;67239;51.680;5.976;2023-08-08T09:43:59;4.97;;;1.33;;
66886;SDS011;67239;51.680;5.976;2023-08-08T09:46:29;5.65;;;1.60;;
66886;SDS011;67239;51.680;5.976;2023-08-08T09:48:59;7.13;;;1.67;;
66886;SDS011;67239;51.680;5.976;2023-08-08T09:51:27;6.22;;;1.20;;
66886;SDS011;67239;51.680;5.976;2023-08-08T09:53:55;1.50;;;1.05;;
66886;SDS011;67239;51.680;5.976;2023-08-08T09:56:23;4.70;;;1.08;;
66886;SDS011;67239;51.680;5.976;2023-08-08T09:58:52;5.18;;;1.50;;
66886;SDS011;67239;51.680;5.976;2023-08-08T10:01:20;4.28;;;1.48;;
66886;SDS011;67239;51.680;5.976;2023-08-08T10:03:48;3.83;;;1.20;;
66886;SDS011;67239;51.680;5.976;2023-08-08T10:06:19;2.22;;;1.00;;
66886;SDS011;67239;51.680;5.976;2023-08-08T10:08:47;4.30;;;1.35;;
66886;SDS011;67239;51.680;5.976;2023-08-08T10:11:14;5.97;;;1.35;;
66886;SDS011;67239;51.680;5.976;2023-08-08T10:13:49;5.78;;;1.25;;
66886;SDS011;67239;51.680;5.976;2023-08-08T10:16:19;5.57;;;1.60;;
66886;SDS011;67239;51.680;5.976;2023-08-08T10:18:56;6.88;;;1.75;;
66886;SDS011;67239;51.680;5.976;2023-08-08T10:21:32;5.53;;;1.20;;
66886;SDS011;67239;51.680;5.976;2023-08-08T10:24:02;5.57;;;1.63;;
66886;SDS011;67239;51.680;5.976;2023-08-08T10:26:52;4.15;;;1.38;;
66886;SDS011;67239;51.680;5.976;2023-08-08T10:29:24;5.80;;;1.33;;
66886;SDS011;67239;51.680;5.976;2023-08-08T10:31:58;5.97;;;0.90;;
66886;SDS011;67239;51.680;5.976;2023-08-08T10:37:12;20.60;;;1.88;;
66886;SDS011;67239;51.680;5.976;2023-08-08T10:39:51;5.28;;;1.27;;
66886;SDS011;67239;51.680;5.976;2023-08-08T10:42:25;5.97;;;1.10;;
66886;SDS011;67239;51.680;5.976;2023-08-08T10:44:55;3.30;;;1.17;;
66886;SDS011;67239;51.680;5.976;2023-08-08T10:47:25;2.78;;;1.27;;
66886;SDS011;67239;51.680;5.976;2023-08-08T10:52:37;3.75;;;1.48;;
66886;SDS011;67239;51.680;5.976;2023-08-08T10:58:05;2.63;;;1.13;;
66886;SDS011;67239;51.680;5.976;2023-08-08T11:00:37;6.78;;;1.40;;
66886;SDS011;67239;51.680;5.976;2023-08-08T11:03:07;19.13;;;2.65;;
66886;SDS011;67239;51.680;5.976;2023-08-08T11:05:37;6.95;;;1.35;;
66886;SDS011;67239;51.680;5.976;2023-08-08T11:08:05;6.25;;;1.33;;
66886;SDS011;67239;51.680;5.976;2023-08-08T11:10:34;5.10;;;1.20;;
66886;SDS011;67239;51.680;5.976;2023-08-08T11:13:04;2.30;;;0.70;;
66886;SDS011;67239;51.680;5.976;2023-08-08T11:15:37;7.25;;;1.27;;
66886;SDS011;67239;51.680;5.976;2023-08-08T11:18:06;2.38;;;1.10;;
66886;SDS011;67239;51.680;5.976;2023-08-08T11:20:35;7.80;;;1.50;;
66886;SDS011;67239;51.680;5.976;2023-08-08T11:23:03;10.55;;;1.30;;
66886;SDS011;67239;51.680;5.976;2023-08-08T11:25:39;6.07;;;1.10;;
66886;SDS011;67239;51.680;5.976;2023-08-08T11:28:09;3.03;;;1.20;;
66886;SDS011;67239;51.680;5.976;2023-08-08T11:30:38;4.40;;;1.13;;
66886;SDS011;67239;51.680;5.976;2023-08-08T11:33:09;2.33;;;1.00;;
66886;SDS011;67239;51.680;5.976;2023-08-08T11:35:44;4.47;;;1.48;;
66886;SDS011;67239;51.680;5.976;2023-08-08T11:38:13;7.18;;;1.40;;
66886;SDS011;67239;51.680;5.976;2023-08-08T11:40:41;5.65;;;1.23;;
66886;SDS011;67239;51.680;5.976;2023-08-08T11:43:09;12.55;;;2.05;;
66886;SDS011;67239;51.680;5.976;2023-08-08T11:45:38;4.10;;;1.17;;
66886;SDS011;67239;51.680;5.976;2023-08-08T11:48:05;3.60;;;0.80;;
66886;SDS011;67239;51.680;5.976;2023-08-08T11:50:36;4.30;;;1.13;;
66886;SDS011;67239;51.680;5.976;2023-08-08T11:53:04;5.07;;;1.13;;
66886;SDS011;67239;51.680;5.976;2023-08-08T11:55:32;3.20;;;1.30;;
66886;SDS011;67239;51.680;5.976;2023-08-08T11:58:00;5.53;;;1.40;;
66886;SDS011;67239;51.680;5.976;2023-08-08T12:00:28;2.97;;;1.40;;
66886;SDS011;67239;51.680;5.976;2023-08-08T12:03:00;3.05;;;1.20;;
66886;SDS011;67239;51.680;5.976;2023-08-08T12:05:28;5.25;;;1.55;;
66886;SDS011;67239;51.680;5.976;2023-08-08T12:07:58;6.57;;;1.30;;
66886;SDS011;67239;51.680;5.976;2023-08-08T12:10:25;3.70;;;1.20;;
66886;SDS011;67239;51.680;5.976;2023-08-08T12:12:53;3.33;;;1.10;;
66886;SDS011;67239;51.680;5.976;2023-08-08T12:15:23;5.70;;;1.23;;
66886;SDS011;67239;51.680;5.976;2023-08-08T12:18:03;11.60;;;1.40;;
66886;SDS011;67239;51.680;5.976;2023-08-08T12:20:31;4.97;;;1.30;;
66886;SDS011;67239;51.680;5.976;2023-08-08T12:22:58;3.25;;;1.13;;
66886;SDS011;67239;51.680;5.976;2023-08-08T12:25:26;5.57;;;1.20;;
66886;SDS011;67239;51.680;5.976;2023-08-08T12:27:54;3.58;;;1.25;;
66886;SDS011;67239;51.680;5.976;2023-08-08T12:30:21;3.22;;;1.08;;
66886;SDS011;67239;51.680;5.976;2023-08-08T12:32:48;4.10;;;1.20;;
66886;SDS011;67239;51.680;5.976;2023-08-08T12:35:15;3.53;;;1.40;;
66886;SDS011;67239;51.680;5.976;2023-08-08T12:37:43;9.45;;;1.70;;
66886;SDS011;67239;51.680;5.976;2023-08-08T12:40:11;3.35;;;0.90;;
66886;SDS011;67239;51.680;5.976;2023-08-08T12:42:39;3.88;;;1.00;;
66886;SDS011;67239;51.680;5.976;2023-08-08T12:45:06;5.43;;;1.10;;
66886;SDS011;67239;51.680;5.976;2023-08-08T12:47:34;3.38;;;0.88;;
66886;SDS011;67239;51.680;5.976;2023-08-08T12:50:04;4.00;;;0.85;;
66886;SDS011;67239;51.680;5.976;2023-08-08T12:52:32;3.60;;;0.75;;
66886;SDS011;67239;51.680;5.976;2023-08-08T12:55:00;7.20;;;1.13;;
66886;SDS011;67239;51.680;5.976;2023-08-08T12:57:27;2.03;;;1.02;;
66886;SDS011;67239;51.680;5.976;2023-08-08T12:59:54;3.67;;;0.73;;
66886;SDS011;67239;51.680;5.976;2023-08-08T13:02:21;2.78;;;0.95;;
66886;SDS011;67239;51.680;5.976;2023-08-08T13:04:48;1.20;;;0.60;;
66886;SDS011;67239;51.680;5.976;2023-08-08T13:07:16;5.82;;;1.00;;
66886;SDS011;67239;51.680;5.976;2023-08-08T13:09:43;4.55;;;0.50;;
66886;SDS011;67239;51.680;5.976;2023-08-08T13:12:10;8.88;;;0.65;;
66886;SDS011;67239;51.680;5.976;2023-08-08T13:14:37;2.50;;;0.55;;
66886;SDS011;67239;51.680;5.976;2023-08-08T13:17:04;1.38;;;0.47;;
66886;SDS011;67239;51.680;5.976;2023-08-08T13:19:31;4.03;;;0.77;;
66886;SDS011;67239;51.680;5.976;2023-08-08T13:21:58;1.35;;;0.50;;
66886;SDS011;67239;51.680;5.976;2023-08-08T13:24:26;3.00;;;0.63;;
66886;SDS011;67239;51.680;5.976;2023-08-08T13:26:53;1.05;;;0.50;;
66886;SDS011;67239;51.680;5.976;2023-08-08T13:29:20;1.80;;;0.50;;
66886;SDS011;67239;51.680;5.976;2023-08-08T13:31:47;3.20;;;0.65;;
66886;SDS011;67239;51.680;5.976;2023-08-08T13:34:14;1.83;;;0.50;;
66886;SDS011;67239;51.680;5.976;2023-08-08T13:36:41;2.83;;;0.50;;
66886;SDS011;67239;51.680;5.976;2023-08-08T13:39:09;8.43;;;0.82;;
66886;SDS011;67239;51.680;5.976;2023-08-08T13:41:36;1.52;;;0.38;;
66886;SDS011;67239;51.680;5.976;2023-08-08T13:44:04;1.15;;;0.40;;
66886;SDS011;67239;51.680;5.976;2023-08-08T13:46:31;1.58;;;0.30;;
66886;SDS011;67239;51.680;5.976;2023-08-08T13:48:58;1.73;;;0.43;;
66886;SDS011;67239;51.680;5.976;2023-08-08T13:51:25;2.58;;;0.57;;
66886;SDS011;67239;51.680;5.976;2023-08-08T13:53:52;1.92;;;0.50;;
66886;SDS011;67239;51.680;5.976;2023-08-08T13:56:19;2.40;;;0.50;;
66886;SDS011;67239;51.680;5.976;2023-08-08T13:58:47;3.00;;;0.50;;
66886;SDS011;67239;51.680;5.976;2023-08-08T14:01:15;2.45;;;0.57;;
66886;SDS011;67239;51.680;5.976;2023-08-08T14:03:42;7.10;;;0.50;;
66886;SDS011;67239;51.680;5.976;2023-08-08T14:06:11;0.60;;;0.40;;
66886;SDS011;67239;51.680;5.976;2023-08-08T14:08:38;2.40;;;0.47;;
66886;SDS011;67239;51.680;5.976;2023-08-08T14:11:05;1.83;;;0.47;;
66886;SDS011;67239;51.680;5.976;2023-08-08T14:13:32;1.63;;;0.40;;
66886;SDS011;67239;51.680;5.976;2023-08-08T14:16:01;1.83;;;0.40;;
66886;SDS011;67239;51.680;5.976;2023-08-08T14:18:28;3.92;;;0.52;;
66886;SDS011;67239;51.680;5.976;2023-08-08T14:20:55;2.03;;;0.82;;
66886;SDS011;67239;51.680;5.976;2023-08-08T14:23:22;1.85;;;0.57;;
66886;SDS011;67239;51.680;5.976;2023-08-08T14:25:49;4.72;;;0.60;;
66886;SDS011;67239;51.680;5.976;2023-08-08T14:28:16;0.85;;;0.40;;
66886;SDS011;67239;51.680;5.976;2023-08-08T14:30:43;0.98;;;0.40;;
66886;SDS011;67239;51.680;5.976;2023-08-08T14:33:12;4.20;;;0.85;;
66886;SDS011;67239;51.680;5.976;2023-08-08T14:35:41;4.65;;;0.77;;
66886;SDS011;67239;51.680;5.976;2023-08-08T14:38:09;5.10;;;0.60;;
66886;SDS011;67239;51.680;5.976;2023-08-08T14:40:36;6.90;;;0.75;;
66886;SDS011;67239;51.680;5.976;2023-08-08T14:43:03;2.22;;;0.47;;
66886;SDS011;67239;51.680;5.976;2023-08-08T14:45:37;2.05;;;0.70;;
66886;SDS011;67239;51.680;5.976;2023-08-08T14:48:05;2.63;;;0.68;;
66886;SDS011;67239;51.680;5.976;2023-08-08T14:50:33;5.65;;;0.98;;
66886;SDS011;67239;51.680;5.976;2023-08-08T14:53:01;1.58;;;0.52;;
66886;SDS011;67239;51.680;5.976;2023-08-08T14:55:28;2.20;;;0.65;;
66886;SDS011;67239;51.680;5.976;2023-08-08T14:57:55;1.38;;;0.40;;